Bellwood, Nebraska
Current Conditions -  °F | °C
As of 9:55 AM on Thursday 27 Nov 2014 (Local Time) from KOLU Reporting Station
Broken Clouds Broken Clouds  
Wind Chill: 10°   Ceiling: 4800
Heat Index: 19°   Visibility: 10mi
Dew Point:   Wind: 7mph
Humidity: 63%   Direction: 140°SE
Pressure: 30.49"   Gusts: NA
Location:  41.34°N, 97.24°W
Report Text: KOLU 271555Z AUTO 14006KT 10SM BKN048 M07/M13 A3049 RMK AO1
Loading
Personal Weather Stations






























Interactive Weather Map New forecast layout! Learn more

10-Day Weather Forecast

Advertisements
Track Severe Weather on mobile